sensor_id;sensor_type;location;lat;lon;timestamp;pressure;altitude;pressure_sealevel;temperature;humidity
19736;BME280;32064;49.310;8.646;2023-02-13T00:00:29;102596.69;;;8.20;79.19
19736;BME280;32064;49.310;8.646;2023-02-13T00:02:55;102601.88;;;8.23;78.67
19736;BME280;32064;49.310;8.646;2023-02-13T00:05:20;102591.38;;;8.23;79.10
19736;BME280;32064;49.310;8.646;2023-02-13T00:07:46;102595.06;;;8.16;79.06
19736;BME280;32064;49.310;8.646;2023-02-13T00:10:11;102589.81;;;8.16;78.91
19736;BME280;32064;49.310;8.646;2023-02-13T00:12:37;102589.75;;;8.19;78.78
19736;BME280;32064;49.310;8.646;2023-02-13T00:15:03;102582.81;;;8.17;78.59
19736;BME280;32064;49.310;8.646;2023-02-13T00:17:29;102590.69;;;8.15;78.90
19736;BME280;32064;49.310;8.646;2023-02-13T00:19:54;102587.19;;;8.16;78.65
19736;BME280;32064;49.310;8.646;2023-02-13T00:22:20;102588.13;;;8.14;78.31
19736;BME280;32064;49.310;8.646;2023-02-13T00:24:45;102585.69;;;8.06;79.14
19736;BME280;32064;49.310;8.646;2023-02-13T00:27:11;102587.34;;;8.10;79.17
19736;BME280;32064;49.310;8.646;2023-02-13T00:29:39;102578.72;;;8.05;78.28
19736;BME280;32064;49.310;8.646;2023-02-13T00:32:05;102577.81;;;8.06;78.94
19736;BME280;32064;49.310;8.646;2023-02-13T00:34:30;102583.19;;;8.01;78.89
19736;BME280;32064;49.310;8.646;2023-02-13T00:36:55;102587.63;;;7.98;78.66
19736;BME280;32064;49.310;8.646;2023-02-13T00:39:21;102580.69;;;7.95;78.66
19736;BME280;32064;49.310;8.646;2023-02-13T00:41:46;102574.66;;;7.92;78.40
19736;BME280;32064;49.310;8.646;2023-02-13T00:44:12;102573.84;;;7.90;78.50
19736;BME280;32064;49.310;8.646;2023-02-13T00:46:37;102580.84;;;7.89;78.37
19736;BME280;32064;49.310;8.646;2023-02-13T00:49:03;102573.22;;;7.80;78.49
19736;BME280;32064;49.310;8.646;2023-02-13T00:51:31;102575.03;;;7.76;78.78
19736;BME280;32064;49.310;8.646;2023-02-13T00:53:57;102581.22;;;7.74;78.87
19736;BME280;32064;49.310;8.646;2023-02-13T00:56:22;102580.28;;;7.76;78.77
19736;BME280;32064;49.310;8.646;2023-02-13T00:58:48;102576.84;;;7.73;79.22
19736;BME280;32064;49.310;8.646;2023-02-13T01:01:13;102579.47;;;7.73;79.85
19736;BME280;32064;49.310;8.646;2023-02-13T01:03:39;102581.31;;;7.69;79.37
19736;BME280;32064;49.310;8.646;2023-02-13T01:06:05;102581.34;;;7.68;79.92
19736;BME280;32064;49.310;8.646;2023-02-13T01:08:30;102579.47;;;7.73;79.28
19736;BME280;32064;49.310;8.646;2023-02-13T01:10:56;102578.69;;;7.69;79.95
19736;BME280;32064;49.310;8.646;2023-02-13T01:13:21;102576.84;;;7.73;78.78
19736;BME280;32064;49.310;8.646;2023-02-13T01:15:51;102576.97;;;7.68;79.39
19736;BME280;32064;49.310;8.646;2023-02-13T01:18:18;102590.00;;;7.71;79.64
19736;BME280;32064;49.310;8.646;2023-02-13T01:20:45;102583.31;;;7.58;80.26
19736;BME280;32064;49.310;8.646;2023-02-13T01:23:19;102578.75;;;7.66;80.43
19736;BME280;32064;49.310;8.646;2023-02-13T01:25:44;102583.97;;;7.68;79.72
19736;BME280;32064;49.310;8.646;2023-02-13T01:28:09;102597.94;;;7.68;79.98
19736;BME280;32064;49.310;8.646;2023-02-13T01:30:35;102579.53;;;7.71;80.19
19736;BME280;32064;49.310;8.646;2023-02-13T01:33:03;102583.84;;;7.72;79.35
19736;BME280;32064;49.310;8.646;2023-02-13T01:35:29;102583.00;;;7.72;79.87
19736;BME280;32064;49.310;8.646;2023-02-13T01:37:54;102580.44;;;7.70;78.93
19736;BME280;32064;49.310;8.646;2023-02-13T01:40:19;102577.75;;;7.72;79.81
19736;BME280;32064;49.310;8.646;2023-02-13T01:42:45;102578.63;;;7.72;79.58
19736;BME280;32064;49.310;8.646;2023-02-13T01:47:51;102578.75;;;7.68;79.56
19736;BME280;32064;49.310;8.646;2023-02-13T01:50:36;102572.81;;;7.59;79.22
19736;BME280;32064;49.310;8.646;2023-02-13T01:53:11;102577.13;;;7.60;78.98
19736;BME280;32064;49.310;8.646;2023-02-13T01:55:43;102573.69;;;7.58;80.07
19736;BME280;32064;49.310;8.646;2023-02-13T01:58:15;102571.25;;;7.51;79.57
19736;BME280;32064;49.310;8.646;2023-02-13T02:00:44;102577.38;;;7.50;79.95
19736;BME280;32064;49.310;8.646;2023-02-13T02:03:19;102576.56;;;7.46;80.19
19736;BME280;32064;49.310;8.646;2023-02-13T02:05:47;102574.69;;;7.53;80.08
19736;BME280;32064;49.310;8.646;2023-02-13T02:08:14;102566.19;;;7.43;79.47
19736;BME280;32064;49.310;8.646;2023-02-13T02:10:40;102582.69;;;7.47;80.25
19736;BME280;32064;49.310;8.646;2023-02-13T02:13:11;102580.06;;;7.47;78.75
19736;BME280;32064;49.310;8.646;2023-02-13T02:15:38;102587.91;;;7.47;79.28
19736;BME280;32064;49.310;8.646;2023-02-13T02:18:18;102586.34;;;7.39;79.14
19736;BME280;32064;49.310;8.646;2023-02-13T02:34:51;102571.63;;;7.32;78.67
19736;BME280;32064;49.310;8.646;2023-02-13T02:37:38;102571.69;;;7.29;79.21
19736;BME280;32064;49.310;8.646;2023-02-13T02:46:17;102569.19;;;7.25;79.33
19736;BME280;32064;49.310;8.646;2023-02-13T02:48:59;102567.47;;;7.24;79.48
19736;BME280;32064;49.310;8.646;2023-02-13T02:52:06;102572.81;;;7.17;78.66
19736;BME280;32064;49.310;8.646;2023-02-13T02:54:45;102569.28;;;7.20;78.74
19736;BME280;32064;49.310;8.646;2023-02-13T02:58:18;102574.66;;;7.14;79.71
19736;BME280;32064;49.310;8.646;2023-02-13T03:01:08;102576.34;;;7.16;79.80
19736;BME280;32064;49.310;8.646;2023-02-13T03:03:56;102572.84;;;7.16;79.83
19736;BME280;32064;49.310;8.646;2023-02-13T03:07:03;102572.97;;;7.10;79.16
19736;BME280;32064;49.310;8.646;2023-02-13T03:09:36;102573.78;;;7.13;78.93
19736;BME280;32064;49.310;8.646;2023-02-13T03:12:24;102568.56;;;7.13;79.84
19736;BME280;32064;49.310;8.646;2023-02-13T03:15:10;102576.44;;;7.12;79.23
19736;BME280;32064;49.310;8.646;2023-02-13T03:17:35;102575.56;;;7.11;79.27
19736;BME280;32064;49.310;8.646;2023-02-13T03:24:18;102588.09;;;6.95;78.87
19736;BME280;32064;49.310;8.646;2023-02-13T03:29:45;102584.03;;;6.79;77.08
19736;BME280;32064;49.310;8.646;2023-02-13T03:35:30;102589.50;;;6.67;75.41
19736;BME280;32064;49.310;8.646;2023-02-13T03:41:11;102599.47;;;6.45;75.25
19736;BME280;32064;49.310;8.646;2023-02-13T03:46:39;102603.19;;;6.32;75.10
19736;BME280;32064;49.310;8.646;2023-02-13T03:49:11;102602.41;;;6.25;75.36
19736;BME280;32064;49.310;8.646;2023-02-13T03:52:06;102608.75;;;6.12;74.99
19736;BME280;32064;49.310;8.646;2023-02-13T03:57:26;102609.78;;;6.00;73.67
19736;BME280;32064;49.310;8.646;2023-02-13T04:00:14;102615.09;;;5.92;73.88
19736;BME280;32064;49.310;8.646;2023-02-13T04:02:48;102613.50;;;5.82;74.90
19736;BME280;32064;49.310;8.646;2023-02-13T04:05:19;102617.09;;;5.75;73.91
19736;BME280;32064;49.310;8.646;2023-02-13T04:07:45;102613.59;;;5.76;72.94
19736;BME280;32064;49.310;8.646;2023-02-13T04:10:13;102619.84;;;5.64;73.41
19736;BME280;32064;49.310;8.646;2023-02-13T04:15:17;102619.84;;;5.62;73.94
19736;BME280;32064;49.310;8.646;2023-02-13T04:17:58;102612.16;;;5.52;73.66
19736;BME280;32064;49.310;8.646;2023-02-13T04:20:27;102613.09;;;5.48;74.27
19736;BME280;32064;49.310;8.646;2023-02-13T04:22:53;102609.66;;;5.44;75.13
19736;BME280;32064;49.310;8.646;2023-02-13T04:25:18;102607.13;;;5.36;74.40
19736;BME280;32064;49.310;8.646;2023-02-13T04:27:44;102611.44;;;5.40;75.01
19736;BME280;32064;49.310;8.646;2023-02-13T04:30:11;102613.19;;;5.40;74.65
19736;BME280;32064;49.310;8.646;2023-02-13T04:32:36;102614.97;;;5.35;73.45
19736;BME280;32064;49.310;8.646;2023-02-13T04:35:02;102607.22;;;5.30;73.65
19736;BME280;32064;49.310;8.646;2023-02-13T04:37:27;102607.25;;;5.27;74.57
19736;BME280;32064;49.310;8.646;2023-02-13T04:39:53;102610.81;;;5.22;74.57
19736;BME280;32064;49.310;8.646;2023-02-13T04:42:18;102617.75;;;5.23;73.68
19736;BME280;32064;49.310;8.646;2023-02-13T04:44:46;102610.78;;;5.23;73.49
19736;BME280;32064;49.310;8.646;2023-02-13T04:47:12;102616.00;;;5.23;72.76
19736;BME280;32064;49.310;8.646;2023-02-13T04:49:37;102607.31;;;5.23;73.57
19736;BME280;32064;49.310;8.646;2023-02-13T04:52:02;102605.50;;;5.26;74.48
19736;BME280;32064;49.310;8.646;2023-02-13T04:54:33;102611.59;;;5.28;75.88
19736;BME280;32064;49.310;8.646;2023-02-13T04:56:58;102610.69;;;5.31;76.33
19736;BME280;32064;49.310;8.646;2023-02-13T04:59:24;102607.13;;;5.36;76.66
19736;BME280;32064;49.310;8.646;2023-02-13T05:01:49;102603.63;;;5.39;79.12
19736;BME280;32064;49.310;8.646;2023-02-13T05:04:15;102610.56;;;5.42;78.61
19736;BME280;32064;49.310;8.646;2023-02-13T05:06:41;102608.81;;;5.44;78.49
19736;BME280;32064;49.310;8.646;2023-02-13T05:09:09;102609.53;;;5.55;80.11
19736;BME280;32064;49.310;8.646;2023-02-13T05:11:37;102607.75;;;5.57;80.20
19736;BME280;32064;49.310;8.646;2023-02-13T05:14:05;102607.69;;;5.60;79.86
19736;BME280;32064;49.310;8.646;2023-02-13T05:16:31;102612.06;;;5.59;80.24
19736;BME280;32064;49.310;8.646;2023-02-13T05:18:57;102616.38;;;5.62;81.08
19736;BME280;32064;49.310;8.646;2023-02-13T05:21:22;102604.97;;;5.69;79.52
19736;BME280;32064;49.310;8.646;2023-02-13T05:24:06;102605.91;;;5.65;81.27
19736;BME280;32064;49.310;8.646;2023-02-13T05:26:32;102605.00;;;5.68;80.27
19736;BME280;32064;49.310;8.646;2023-02-13T05:28:57;102606.78;;;5.62;81.71
19736;BME280;32064;49.310;8.646;2023-02-13T05:31:41;102610.22;;;5.68;82.53
19736;BME280;32064;49.310;8.646;2023-02-13T05:34:06;102599.00;;;5.59;82.90
19736;BME280;32064;49.310;8.646;2023-02-13T05:36:32;102611.22;;;5.59;81.33
19736;BME280;32064;49.310;8.646;2023-02-13T05:38:57;102615.53;;;5.61;82.25
19736;BME280;32064;49.310;8.646;2023-02-13T05:41:22;102619.88;;;5.61;82.51
19736;BME280;32064;49.310;8.646;2023-02-13T05:43:48;102605.97;;;5.60;82.81
19736;BME280;32064;49.310;8.646;2023-02-13T05:46:13;102609.50;;;5.58;81.31
19736;BME280;32064;49.310;8.646;2023-02-13T05:48:39;102618.22;;;5.55;81.91
19736;BME280;32064;49.310;8.646;2023-02-13T05:51:04;102618.19;;;5.58;82.52
19736;BME280;32064;49.310;8.646;2023-02-13T05:53:32;102607.75;;;5.57;81.03
19736;BME280;32064;49.310;8.646;2023-02-13T05:56:02;102608.69;;;5.51;82.44
19736;BME280;32064;49.310;8.646;2023-02-13T05:58:32;102604.41;;;5.47;82.42
19736;BME280;32064;49.310;8.646;2023-02-13T06:00:58;102604.41;;;5.46;82.03
19736;BME280;32064;49.310;8.646;2023-02-13T06:03:24;102600.09;;;5.43;82.58
19736;BME280;32064;49.310;8.646;2023-02-13T06:05:51;102601.78;;;5.47;82.50
19736;BME280;32064;49.310;8.646;2023-02-13T06:08:16;102599.22;;;5.44;82.36
19736;BME280;32064;49.310;8.646;2023-02-13T06:10:43;102599.28;;;5.39;83.15
19736;BME280;32064;49.310;8.646;2023-02-13T06:13:08;102595.75;;;5.42;82.74
19736;BME280;32064;49.310;8.646;2023-02-13T06:15:34;102603.63;;;5.37;83.03
19736;BME280;32064;49.310;8.646;2023-02-13T06:17:59;102602.88;;;5.29;83.03
19736;BME280;32064;49.310;8.646;2023-02-13T06:20:25;102608.97;;;5.28;83.83
19736;BME280;32064;49.310;8.646;2023-02-13T06:22:51;102603.69;;;5.36;82.86
19736;BME280;32064;49.310;8.646;2023-02-13T06:25:17;102611.50;;;5.34;82.18
19736;BME280;32064;49.310;8.646;2023-02-13T06:27:43;102602.69;;;5.43;82.34
19736;BME280;32064;49.310;8.646;2023-02-13T06:30:12;102613.22;;;5.37;82.54
19736;BME280;32064;49.310;8.646;2023-02-13T06:32:38;102608.09;;;5.31;83.58
19736;BME280;32064;49.310;8.646;2023-02-13T06:35:03;102614.13;;;5.36;82.81
19736;BME280;32064;49.310;8.646;2023-02-13T06:37:29;102614.16;;;5.31;83.09
19736;BME280;32064;49.310;8.646;2023-02-13T06:39:54;102620.19;;;5.38;82.37
19736;BME280;32064;49.310;8.646;2023-02-13T06:42:19;102621.94;;;5.34;81.61
19736;BME280;32064;49.310;8.646;2023-02-13T06:44:47;102627.28;;;5.27;82.56
19736;BME280;32064;49.310;8.646;2023-02-13T06:47:13;102628.19;;;5.23;82.68
19736;BME280;32064;49.310;8.646;2023-02-13T06:49:38;102628.25;;;5.18;82.28
19736;BME280;32064;49.310;8.646;2023-02-13T06:52:04;102631.66;;;5.23;81.94
19736;BME280;32064;49.310;8.646;2023-02-13T06:54:29;102638.66;;;5.21;81.40
19736;BME280;32064;49.310;8.646;2023-02-13T06:56:58;102630.09;;;5.10;82.07
19736;BME280;32064;49.310;8.646;2023-02-13T06:59:23;102634.31;;;5.18;83.75
19736;BME280;32064;49.310;8.646;2023-02-13T07:01:48;102632.56;;;5.19;82.41
19736;BME280;32064;49.310;8.646;2023-02-13T07:04:20;102625.66;;;5.18;81.80
19736;BME280;32064;49.310;8.646;2023-02-13T07:06:45;102635.06;;;5.30;82.00
19736;BME280;32064;49.310;8.646;2023-02-13T07:09:13;102639.34;;;5.34;82.33
19736;BME280;32064;49.310;8.646;2023-02-13T07:11:39;102634.91;;;5.42;81.03
19736;BME280;32064;49.310;8.646;2023-02-13T07:14:06;102630.47;;;5.49;83.05
19736;BME280;32064;49.310;8.646;2023-02-13T07:16:31;102633.13;;;5.47;83.34
19736;BME280;32064;49.310;8.646;2023-02-13T07:18:57;102640.91;;;5.50;83.18
19736;BME280;32064;49.310;8.646;2023-02-13T07:21:22;102640.09;;;5.47;83.36
19736;BME280;32064;49.310;8.646;2023-02-13T07:23:48;102647.88;;;5.50;82.59
19736;BME280;32064;49.310;8.646;2023-02-13T07:26:13;102643.63;;;5.39;82.69
19736;BME280;32064;49.310;8.646;2023-02-13T07:28:40;102645.25;;;5.50;83.33
19736;BME280;32064;49.310;8.646;2023-02-13T07:31:05;102648.47;;;5.69;82.97
19736;BME280;32064;49.310;8.646;2023-02-13T07:33:32;102643.31;;;5.67;82.09
19736;BME280;32064;49.310;8.646;2023-02-13T07:35:58;102640.78;;;5.61;81.44
19736;BME280;32064;49.310;8.646;2023-02-13T07:38:23;102645.81;;;5.72;81.20
19736;BME280;32064;49.310;8.646;2023-02-13T07:40:48;102647.50;;;5.77;81.37
19736;BME280;32064;49.310;8.646;2023-02-13T07:43:14;102650.94;;;5.81;82.27
19736;BME280;32064;49.310;8.646;2023-02-13T07:45:39;102646.44;;;5.91;80.76
19736;BME280;32064;49.310;8.646;2023-02-13T07:48:05;102647.94;;;6.10;80.97
19736;BME280;32064;49.310;8.646;2023-02-13T07:50:30;102650.38;;;6.22;81.52
19736;BME280;32064;49.310;8.646;2023-02-13T07:53:00;102651.06;;;6.34;79.35
19736;BME280;32064;49.310;8.646;2023-02-13T07:55:27;102643.69;;;6.60;80.33
19736;BME280;32064;49.310;8.646;2023-02-13T07:57:53;102643.84;;;6.48;79.86
19736;BME280;32064;49.310;8.646;2023-02-13T08:00:20;102640.22;;;6.57;79.67
19736;BME280;32064;49.310;8.646;2023-02-13T08:02:48;102644.31;;;6.73;79.46
19736;BME280;32064;49.310;8.646;2023-02-13T08:05:13;102641.88;;;6.62;78.45
19736;BME280;32064;49.310;8.646;2023-02-13T08:07:39;102637.44;;;6.67;79.47
19736;BME280;32064;49.310;8.646;2023-02-13T08:10:06;102647.88;;;6.69;79.34
19736;BME280;32064;49.310;8.646;2023-02-13T08:12:51;102638.94;;;6.81;78.81
19736;BME280;32064;49.310;8.646;2023-02-13T08:15:17;102643.41;;;6.75;78.51
19736;BME280;32064;49.310;8.646;2023-02-13T08:17:42;102636.31;;;6.82;79.13
19736;BME280;32064;49.310;8.646;2023-02-13T08:20:08;102651.00;;;6.89;79.84
19736;BME280;32064;49.310;8.646;2023-02-13T08:22:35;102649.03;;;7.02;78.82
19736;BME280;32064;49.310;8.646;2023-02-13T08:25:04;102644.41;;;7.16;78.14
19736;BME280;32064;49.310;8.646;2023-02-13T08:27:30;102646.88;;;7.23;78.86
19736;BME280;32064;49.310;8.646;2023-02-13T08:29:56;102644.78;;;7.40;78.41
19736;BME280;32064;49.310;8.646;2023-02-13T08:32:23;102650.59;;;7.56;77.90
19736;BME280;32064;49.310;8.646;2023-02-13T08:34:49;102639.78;;;7.70;77.44
19736;BME280;32064;49.310;8.646;2023-02-13T08:37:15;102635.09;;;7.85;76.73
19736;BME280;32064;49.310;8.646;2023-02-13T08:39:41;102632.16;;;7.99;76.64
19736;BME280;32064;49.310;8.646;2023-02-13T08:42:06;102636.25;;;8.11;76.45
19736;BME280;32064;49.310;8.646;2023-02-13T08:44:32;102633.53;;;8.16;75.80
19736;BME280;32064;49.310;8.646;2023-02-13T08:46:57;102636.06;;;8.19;75.46
19736;BME280;32064;49.310;8.646;2023-02-13T08:49:23;102635.94;;;8.23;75.58
19736;BME280;32064;49.310;8.646;2023-02-13T08:51:49;102637.56;;;8.29;75.33
19736;BME280;32064;49.310;8.646;2023-02-13T08:54:15;102646.25;;;8.32;75.14
19736;BME280;32064;49.310;8.646;2023-02-13T08:56:41;102646.31;;;8.29;75.06
19736;BME280;32064;49.310;8.646;2023-02-13T08:59:06;102647.94;;;8.35;74.67
19736;BME280;32064;49.310;8.646;2023-02-13T09:01:32;102646.25;;;8.32;74.87
19736;BME280;32064;49.310;8.646;2023-02-13T09:03:57;102644.19;;;8.47;74.63
19736;BME280;32064;49.310;8.646;2023-02-13T09:06:23;102650.34;;;8.44;74.53
19736;BME280;32064;49.310;8.646;2023-02-13T09:08:51;102644.91;;;8.52;74.71
19736;BME280;32064;49.310;8.646;2023-02-13T09:11:16;102650.09;;;8.55;74.23
19736;BME280;32064;49.310;8.646;2023-02-13T09:13:42;102655.88;;;8.68;74.00
19736;BME280;32064;49.310;8.646;2023-02-13T09:16:07;102644.56;;;8.66;73.72
19736;BME280;32064;49.310;8.646;2023-02-13T09:18:37;102656.91;;;8.62;73.92
19736;BME280;32064;49.310;8.646;2023-02-13T09:21:04;102644.00;;;8.53;74.47
19736;BME280;32064;49.310;8.646;2023-02-13T09:23:35;102649.22;;;8.54;74.24
19736;BME280;32064;49.310;8.646;2023-02-13T09:26:02;102648.66;;;8.76;73.31
19736;BME280;32064;49.310;8.646;2023-02-13T09:28:34;102653.72;;;8.84;73.12
19736;BME280;32064;49.310;8.646;2023-02-13T09:31:08;102650.97;;;8.88;73.20
19736;BME280;32064;49.310;8.646;2023-02-13T09:33:34;102651.31;;;9.09;73.11
19736;BME280;32064;49.310;8.646;2023-02-13T09:36:12;102647.00;;;9.06;72.48
19736;BME280;32064;49.310;8.646;2023-02-13T09:38:39;102648.03;;;9.32;72.33
19736;BME280;32064;49.310;8.646;2023-02-13T09:41:12;102644.63;;;10.16;71.67
19736;BME280;32064;49.310;8.646;2023-02-13T09:43:47;102645.16;;;12.43;65.86
19736;BME280;32064;49.310;8.646;2023-02-13T09:46:20;102640.94;;;14.50;58.49
19736;BME280;32064;49.310;8.646;2023-02-13T09:48:50;102649.56;;;15.73;55.07
19736;BME280;32064;49.310;8.646;2023-02-13T09:51:19;102649.69;;;16.93;54.15
19736;BME280;32064;49.310;8.646;2023-02-13T09:53:54;102643.03;;;17.43;50.46
19736;BME280;32064;49.310;8.646;2023-02-13T09:56:38;102641.50;;;18.49;47.75
19736;BME280;32064;49.310;8.646;2023-02-13T10:01:46;102643.03;;;20.16;46.62
19736;BME280;32064;49.310;8.646;2023-02-13T10:07:22;102648.75;;;21.16;43.23
19736;BME280;32064;49.310;8.646;2023-02-13T10:10:01;102651.59;;;21.15;41.01
19736;BME280;32064;49.310;8.646;2023-02-13T10:15:11;102649.00;;;21.13;41.24
19736;BME280;32064;49.310;8.646;2023-02-13T10:17:52;102646.22;;;21.37;40.39
19736;BME280;32064;49.310;8.646;2023-02-13T10:20:24;102641.22;;;22.10;40.86
19736;BME280;32064;49.310;8.646;2023-02-13T10:22:56;102636.41;;;22.57;40.98
19736;BME280;32064;49.310;8.646;2023-02-13T10:25:27;102640.19;;;22.54;40.20
19736;BME280;32064;49.310;8.646;2023-02-13T10:28:08;102645.47;;;22.12;38.85
19736;BME280;32064;49.310;8.646;2023-02-13T10:30:45;102643.09;;;21.98;39.20
19736;BME280;32064;49.310;8.646;2023-02-13T10:33:19;102646.03;;;22.27;39.19
19736;BME280;32064;49.310;8.646;2023-02-13T10:36:14;102651.97;;;21.98;37.83
19736;BME280;32064;49.310;8.646;2023-02-13T10:41:29;102629.00;;;22.17;38.72
19736;BME280;32064;49.310;8.646;2023-02-13T10:57:50;102614.41;;;23.65;36.87
19736;BME280;32064;49.310;8.646;2023-02-13T11:00:24;102609.09;;;23.84;36.05
19736;BME280;32064;49.310;8.646;2023-02-13T11:02:54;102620.19;;;23.50;36.78
19736;BME280;32064;49.310;8.646;2023-02-13T11:05:46;102620.72;;;22.83;35.91
19736;BME280;32064;49.310;8.646;2023-02-13T11:08:40;102609.59;;;22.67;35.62
19736;BME280;32064;49.310;8.646;2023-02-13T11:16:40;102602.72;;;22.53;36.79
19736;BME280;32064;49.310;8.646;2023-02-13T11:19:35;102602.13;;;23.22;35.66
19736;BME280;32064;49.310;8.646;2023-02-13T11:22:04;102601.47;;;23.39;35.15
19736;BME280;32064;49.310;8.646;2023-02-13T11:24:35;102606.31;;;23.45;35.25
19736;BME280;32064;49.310;8.646;2023-02-13T11:27:09;102601.22;;;23.52;35.15
19736;BME280;32064;49.310;8.646;2023-02-13T11:29:52;102604.16;;;22.99;33.75
19736;BME280;32064;49.310;8.646;2023-02-13T11:32:19;102592.28;;;23.01;35.35
19736;BME280;32064;49.310;8.646;2023-02-13T11:34:46;102596.16;;;23.08;35.83
19736;BME280;32064;49.310;8.646;2023-02-13T11:37:21;102592.13;;;22.72;35.45
19736;BME280;32064;49.310;8.646;2023-02-13T11:39:49;102595.22;;;22.68;36.79
19736;BME280;32064;49.310;8.646;2023-02-13T11:44:43;102583.22;;;23.33;34.99
19736;BME280;32064;49.310;8.646;2023-02-13T11:47:12;102586.88;;;23.22;35.51
19736;BME280;32064;49.310;8.646;2023-02-13T11:49:44;102585.19;;;23.21;34.47
19736;BME280;32064;49.310;8.646;2023-02-13T11:52:24;102583.59;;;22.88;35.13
19736;BME280;32064;49.310;8.646;2023-02-13T11:55:05;102572.78;;;22.99;35.87
19736;BME280;32064;49.310;8.646;2023-02-13T11:57:59;102586.41;;;23.07;35.04
19736;BME280;32064;49.310;8.646;2023-02-13T12:00:34;102571.88;;;23.20;35.37
19736;BME280;32064;49.310;8.646;2023-02-13T12:03:42;102573.34;;;23.43;34.59
19736;BME280;32064;49.310;8.646;2023-02-13T12:06:13;102571.31;;;23.76;34.50
19736;BME280;32064;49.310;8.646;2023-02-13T12:08:45;102570.47;;;23.75;34.58
19736;BME280;32064;49.310;8.646;2023-02-13T12:11:38;102570.81;;;23.42;33.27
19736;BME280;32064;49.310;8.646;2023-02-13T12:14:10;102563.66;;;23.71;35.19
19736;BME280;32064;49.310;8.646;2023-02-13T12:16:44;102564.78;;;23.88;35.52
19736;BME280;32064;49.310;8.646;2023-02-13T12:19:19;102565.09;;;23.95;34.61
19736;BME280;32064;49.310;8.646;2023-02-13T12:27:49;102547.06;;;22.97;36.13
19736;BME280;32064;49.310;8.646;2023-02-13T12:44:38;102535.06;;;23.70;35.66
19736;BME280;32064;49.310;8.646;2023-02-13T12:47:22;102524.03;;;23.83;34.77
19736;BME280;32064;49.310;8.646;2023-02-13T12:50:05;102524.84;;;23.45;34.18
19736;BME280;32064;49.310;8.646;2023-02-13T12:55:25;102523.22;;;22.82;35.53
19736;BME280;32064;49.310;8.646;2023-02-13T13:06:23;102511.41;;;23.64;34.65
19736;BME280;32064;49.310;8.646;2023-02-13T13:28:26;102494.41;;;23.35;34.60
19736;BME280;32064;49.310;8.646;2023-02-13T13:30:53;102494.88;;;22.59;35.47
19736;BME280;32064;49.310;8.646;2023-02-13T13:33:21;102487.34;;;22.22;36.47
19736;BME280;32064;49.310;8.646;2023-02-13T13:38:24;102489.41;;;20.90;37.53
19736;BME280;32064;49.310;8.646;2023-02-13T13:40:59;102494.34;;;20.94;37.75
19736;BME280;32064;49.310;8.646;2023-02-13T13:46:18;102489.75;;;20.74;38.96
19736;BME280;32064;49.310;8.646;2023-02-13T13:51:24;102478.69;;;21.01;38.54
19736;BME280;32064;49.310;8.646;2023-02-13T13:56:25;102481.19;;;20.24;39.76
19736;BME280;32064;49.310;8.646;2023-02-13T13:58:50;102470.25;;;20.27;39.22
19736;BME280;32064;49.310;8.646;2023-02-13T14:01:27;102478.19;;;19.82;39.57
19736;BME280;32064;49.310;8.646;2023-02-13T14:11:50;102464.88;;;17.82;42.50
19736;BME280;32064;49.310;8.646;2023-02-13T14:16:57;102453.84;;;17.73;42.77
19736;BME280;32064;49.310;8.646;2023-02-13T14:19:37;102467.03;;;17.62;43.35
19736;BME280;32064;49.310;8.646;2023-02-13T14:24:49;102467.69;;;18.18;44.22
19736;BME280;32064;49.310;8.646;2023-02-13T14:27:23;102465.00;;;18.70;43.10
19736;BME280;32064;49.310;8.646;2023-02-13T14:29:49;102462.34;;;18.82;43.08
19736;BME280;32064;49.310;8.646;2023-02-13T14:34:51;102458.69;;;19.20;41.17
19736;BME280;32064;49.310;8.646;2023-02-13T14:37:33;102454.34;;;18.82;41.09
19736;BME280;32064;49.310;8.646;2023-02-13T14:42:54;102446.16;;;17.56;42.73
19736;BME280;32064;49.310;8.646;2023-02-13T14:45:28;102440.41;;;17.35;43.38
19736;BME280;32064;49.310;8.646;2023-02-13T14:47:57;102442.53;;;17.03;44.18
19736;BME280;32064;49.310;8.646;2023-02-13T14:50:41;102445.63;;;16.82;44.34
19736;BME280;32064;49.310;8.646;2023-02-13T14:53:17;102444.97;;;16.50;46.66
19736;BME280;32064;49.310;8.646;2023-02-13T14:55:47;102445.13;;;16.47;45.89
19736;BME280;32064;49.310;8.646;2023-02-13T14:58:29;102441.34;;;16.23;45.94
19736;BME280;32064;49.310;8.646;2023-02-13T15:01:04;102444.91;;;16.22;47.34
19736;BME280;32064;49.310;8.646;2023-02-13T15:06:02;102439.56;;;15.93;46.97
19736;BME280;32064;49.310;8.646;2023-02-13T15:08:35;102441.75;;;15.86;48.46
19736;BME280;32064;49.310;8.646;2023-02-13T15:11:02;102448.72;;;15.73;47.74
19736;BME280;32064;49.310;8.646;2023-02-13T15:13:33;102451.06;;;15.47;49.21
19736;BME280;32064;49.310;8.646;2023-02-13T15:16:08;102442.59;;;15.41;48.97
19736;BME280;32064;49.310;8.646;2023-02-13T15:18:44;102441.06;;;15.37;49.15
19736;BME280;32064;49.310;8.646;2023-02-13T15:21:18;102439.13;;;15.24;49.76
19736;BME280;32064;49.310;8.646;2023-02-13T15:23:49;102440.06;;;15.23;49.63
19736;BME280;32064;49.310;8.646;2023-02-13T15:26:20;102451.78;;;15.19;49.69
19736;BME280;32064;49.310;8.646;2023-02-13T15:29:03;102440.16;;;14.90;49.80
19736;BME280;32064;49.310;8.646;2023-02-13T15:31:32;102436.13;;;14.99;49.90
19736;BME280;32064;49.310;8.646;2023-02-13T15:33:58;102445.88;;;14.98;49.89
19736;BME280;32064;49.310;8.646;2023-02-13T15:36:25;102440.16;;;14.90;50.65
19736;BME280;32064;49.310;8.646;2023-02-13T15:38:58;102429.38;;;14.77;50.67
19736;BME280;32064;49.310;8.646;2023-02-13T15:41:37;102426.22;;;14.71;50.73
19736;BME280;32064;49.310;8.646;2023-02-13T15:44:04;102427.41;;;14.65;51.12
19736;BME280;32064;49.310;8.646;2023-02-13T15:46:33;102426.31;;;14.69;51.25
19736;BME280;32064;49.310;8.646;2023-02-13T15:49:07;102433.53;;;14.66;51.53
19736;BME280;32064;49.310;8.646;2023-02-13T15:51:33;102436.53;;;14.59;50.95
19736;BME280;32064;49.310;8.646;2023-02-13T15:54:26;102434.91;;;14.57;51.08